sensor_id;sensor_type;location;lat;lon;timestamp;temperature;humidity
21439;DHT22;10880;50.302;18.736;2022-10-16T00:04:08;19.30;58.00
21439;DHT22;10880;50.302;18.736;2022-10-16T00:06:35;19.30;58.30
21439;DHT22;10880;50.302;18.736;2022-10-16T00:11:30;19.30;58.10
21439;DHT22;10880;50.302;18.736;2022-10-16T00:14:01;19.30;58.60
21439;DHT22;10880;50.302;18.736;2022-10-16T00:16:28;19.30;58.50
21439;DHT22;10880;50.302;18.736;2022-10-16T00:18:55;19.30;58.60
21439;DHT22;10880;50.302;18.736;2022-10-16T00:21:27;19.30;58.30
21439;DHT22;10880;50.302;18.736;2022-10-16T00:24:12;19.30;58.60
21439;DHT22;10880;50.302;18.736;2022-10-16T00:26:39;19.30;58.20
21439;DHT22;10880;50.302;18.736;2022-10-16T00:29:07;19.20;58.10
21439;DHT22;10880;50.302;18.736;2022-10-16T00:31:34;19.20;58.60
21439;DHT22;10880;50.302;18.736;2022-10-16T00:34:00;19.20;58.70
21439;DHT22;10880;50.302;18.736;2022-10-16T00:36:27;19.20;58.30
21439;DHT22;10880;50.302;18.736;2022-10-16T00:38:55;19.20;58.30
21439;DHT22;10880;50.302;18.736;2022-10-16T00:41:23;19.20;58.70
21439;DHT22;10880;50.302;18.736;2022-10-16T00:46:23;19.20;58.30
21439;DHT22;10880;50.302;18.736;2022-10-16T00:51:20;19.20;58.50
21439;DHT22;10880;50.302;18.736;2022-10-16T00:53:49;19.10;58.80
21439;DHT22;10880;50.302;18.736;2022-10-16T00:56:16;19.20;58.40
21439;DHT22;10880;50.302;18.736;2022-10-16T00:58:43;19.20;58.90
21439;DHT22;10880;50.302;18.736;2022-10-16T01:01:09;19.20;58.40
21439;DHT22;10880;50.302;18.736;2022-10-16T01:03:36;19.10;58.50
21439;DHT22;10880;50.302;18.736;2022-10-16T01:06:23;19.10;58.80
21439;DHT22;10880;50.302;18.736;2022-10-16T01:11:49;19.10;58.80
21439;DHT22;10880;50.302;18.736;2022-10-16T01:14:38;19.10;58.90
21439;DHT22;10880;50.302;18.736;2022-10-16T01:17:12;19.10;58.80
21439;DHT22;10880;50.302;18.736;2022-10-16T01:22:24;19.10;58.40
21439;DHT22;10880;50.302;18.736;2022-10-16T01:24:55;19.10;58.80
21439;DHT22;10880;50.302;18.736;2022-10-16T01:27:27;19.00;58.80
21439;DHT22;10880;50.302;18.736;2022-10-16T01:30:18;19.00;58.90
21439;DHT22;10880;50.302;18.736;2022-10-16T01:32:55;19.00;59.00
21439;DHT22;10880;50.302;18.736;2022-10-16T01:35:28;18.90;58.40
21439;DHT22;10880;50.302;18.736;2022-10-16T01:38:23;19.00;59.10
21439;DHT22;10880;50.302;18.736;2022-10-16T01:40:56;18.90;59.10
21439;DHT22;10880;50.302;18.736;2022-10-16T01:43:33;18.90;59.00
21439;DHT22;10880;50.302;18.736;2022-10-16T01:46:01;18.90;59.10
21439;DHT22;10880;50.302;18.736;2022-10-16T01:48:29;18.90;58.90
21439;DHT22;10880;50.302;18.736;2022-10-16T01:51:09;18.90;59.10
21439;DHT22;10880;50.302;18.736;2022-10-16T01:53:37;18.80;59.10
21439;DHT22;10880;50.302;18.736;2022-10-16T01:56:06;18.80;59.10
21439;DHT22;10880;50.302;18.736;2022-10-16T01:58:38;18.80;59.10
21439;DHT22;10880;50.302;18.736;2022-10-16T02:01:08;18.80;59.20
21439;DHT22;10880;50.302;18.736;2022-10-16T02:03:38;18.80;59.20
21439;DHT22;10880;50.302;18.736;2022-10-16T02:06:07;18.80;59.20
21439;DHT22;10880;50.302;18.736;2022-10-16T02:08:33;18.80;59.30
21439;DHT22;10880;50.302;18.736;2022-10-16T02:11:01;18.80;59.20
21439;DHT22;10880;50.302;18.736;2022-10-16T02:13:44;18.80;59.30
21439;DHT22;10880;50.302;18.736;2022-10-16T02:16:12;18.80;59.30
21439;DHT22;10880;50.302;18.736;2022-10-16T02:18:41;18.80;59.30
21439;DHT22;10880;50.302;18.736;2022-10-16T02:21:16;18.80;59.30
21439;DHT22;10880;50.302;18.736;2022-10-16T02:24:00;18.80;59.30
21439;DHT22;10880;50.302;18.736;2022-10-16T02:26:45;18.80;59.50
21439;DHT22;10880;50.302;18.736;2022-10-16T02:29:18;18.80;59.30
21439;DHT22;10880;50.302;18.736;2022-10-16T02:31:49;18.80;59.30
21439;DHT22;10880;50.302;18.736;2022-10-16T02:34:18;18.80;59.30
21439;DHT22;10880;50.302;18.736;2022-10-16T02:36:48;18.80;59.30
21439;DHT22;10880;50.302;18.736;2022-10-16T02:39:16;18.80;59.30
21439;DHT22;10880;50.302;18.736;2022-10-16T02:44:11;18.70;58.80
21439;DHT22;10880;50.302;18.736;2022-10-16T02:46:37;18.70;59.10
21439;DHT22;10880;50.302;18.736;2022-10-16T02:49:04;18.70;59.10
21439;DHT22;10880;50.302;18.736;2022-10-16T02:51:31;18.70;59.30
21439;DHT22;10880;50.302;18.736;2022-10-16T02:53:57;18.70;58.80
21439;DHT22;10880;50.302;18.736;2022-10-16T02:56:23;18.70;58.90
21439;DHT22;10880;50.302;18.736;2022-10-16T02:58:50;18.60;58.90
21439;DHT22;10880;50.302;18.736;2022-10-16T03:01:16;18.60;59.10
21439;DHT22;10880;50.302;18.736;2022-10-16T03:03:43;18.60;59.00
21439;DHT22;10880;50.302;18.736;2022-10-16T03:06:09;18.60;59.00
21439;DHT22;10880;50.302;18.736;2022-10-16T03:08:35;18.50;59.00
21439;DHT22;10880;50.302;18.736;2022-10-16T03:11:02;18.50;59.00
21439;DHT22;10880;50.302;18.736;2022-10-16T03:13:28;18.50;59.10
21439;DHT22;10880;50.302;18.736;2022-10-16T03:15:54;18.50;59.00
21439;DHT22;10880;50.302;18.736;2022-10-16T03:18:21;18.50;59.20
21439;DHT22;10880;50.302;18.736;2022-10-16T03:20:47;18.40;59.20
21439;DHT22;10880;50.302;18.736;2022-10-16T03:23:14;18.40;59.10
21439;DHT22;10880;50.302;18.736;2022-10-16T03:25:40;18.40;59.30
21439;DHT22;10880;50.302;18.736;2022-10-16T03:28:07;18.40;59.30
21439;DHT22;10880;50.302;18.736;2022-10-16T03:30:33;18.40;59.50
21439;DHT22;10880;50.302;18.736;2022-10-16T03:33:00;18.40;59.30
21439;DHT22;10880;50.302;18.736;2022-10-16T03:35:26;18.40;59.40
21439;DHT22;10880;50.302;18.736;2022-10-16T03:37:53;18.30;59.50
21439;DHT22;10880;50.302;18.736;2022-10-16T03:40:19;18.30;59.40
21439;DHT22;10880;50.302;18.736;2022-10-16T03:42:45;18.30;59.50
21439;DHT22;10880;50.302;18.736;2022-10-16T03:45:12;18.30;59.40
21439;DHT22;10880;50.302;18.736;2022-10-16T03:47:38;18.40;59.60
21439;DHT22;10880;50.302;18.736;2022-10-16T03:50:05;18.30;59.50
21439;DHT22;10880;50.302;18.736;2022-10-16T03:52:31;18.30;59.90
21439;DHT22;10880;50.302;18.736;2022-10-16T03:54:59;18.30;59.80
21439;DHT22;10880;50.302;18.736;2022-10-16T03:59:52;18.30;59.60
21439;DHT22;10880;50.302;18.736;2022-10-16T04:02:18;18.30;59.60
21439;DHT22;10880;50.302;18.736;2022-10-16T04:04:44;18.30;59.70
21439;DHT22;10880;50.302;18.736;2022-10-16T04:07:10;18.30;59.70
21439;DHT22;10880;50.302;18.736;2022-10-16T04:09:37;18.30;59.70
21439;DHT22;10880;50.302;18.736;2022-10-16T04:12:04;18.30;59.70
21439;DHT22;10880;50.302;18.736;2022-10-16T04:14:31;18.30;59.70
21439;DHT22;10880;50.302;18.736;2022-10-16T04:16:57;18.30;59.90
21439;DHT22;10880;50.302;18.736;2022-10-16T04:19:24;18.30;59.70
21439;DHT22;10880;50.302;18.736;2022-10-16T04:21:50;18.30;59.70
21439;DHT22;10880;50.302;18.736;2022-10-16T04:24:16;18.30;59.70
21439;DHT22;10880;50.302;18.736;2022-10-16T04:26:42;18.30;59.60
21439;DHT22;10880;50.302;18.736;2022-10-16T04:29:09;18.30;59.70
21439;DHT22;10880;50.302;18.736;2022-10-16T04:31:35;18.30;59.70
21439;DHT22;10880;50.302;18.736;2022-10-16T04:34:01;18.30;59.70
21439;DHT22;10880;50.302;18.736;2022-10-16T04:36:28;18.20;59.60
21439;DHT22;10880;50.302;18.736;2022-10-16T04:38:54;18.20;59.60
21439;DHT22;10880;50.302;18.736;2022-10-16T04:41:20;18.20;59.60
21439;DHT22;10880;50.302;18.736;2022-10-16T04:43:47;18.20;59.60
21439;DHT22;10880;50.302;18.736;2022-10-16T04:46:13;18.10;59.80
21439;DHT22;10880;50.302;18.736;2022-10-16T04:48:40;18.10;59.60
21439;DHT22;10880;50.302;18.736;2022-10-16T04:51:06;18.10;59.50
21439;DHT22;10880;50.302;18.736;2022-10-16T04:53:32;18.10;59.60
21439;DHT22;10880;50.302;18.736;2022-10-16T04:55:59;18.10;59.80
21439;DHT22;10880;50.302;18.736;2022-10-16T04:58:25;18.00;59.50
21439;DHT22;10880;50.302;18.736;2022-10-16T05:00:51;18.00;59.50
21439;DHT22;10880;50.302;18.736;2022-10-16T05:03:18;18.00;59.50
21439;DHT22;10880;50.302;18.736;2022-10-16T05:05:45;18.00;59.80
21439;DHT22;10880;50.302;18.736;2022-10-16T05:08:14;17.90;59.70
21439;DHT22;10880;50.302;18.736;2022-10-16T05:10:44;17.90;60.00
21439;DHT22;10880;50.302;18.736;2022-10-16T05:13:11;17.90;60.00
21439;DHT22;10880;50.302;18.736;2022-10-16T05:15:38;17.90;59.60
21439;DHT22;10880;50.302;18.736;2022-10-16T05:18:04;17.90;59.60
21439;DHT22;10880;50.302;18.736;2022-10-16T05:22:57;17.80;59.50
21439;DHT22;10880;50.302;18.736;2022-10-16T05:25:24;17.80;59.70
21439;DHT22;10880;50.302;18.736;2022-10-16T05:27:50;17.80;59.50
21439;DHT22;10880;50.302;18.736;2022-10-16T05:30:17;17.70;59.60
21439;DHT22;10880;50.302;18.736;2022-10-16T05:32:48;17.70;60.10
21439;DHT22;10880;50.302;18.736;2022-10-16T05:35:16;17.70;60.10
21439;DHT22;10880;50.302;18.736;2022-10-16T05:37:44;17.70;60.20
21439;DHT22;10880;50.302;18.736;2022-10-16T05:40:11;17.60;60.40
21439;DHT22;10880;50.302;18.736;2022-10-16T05:42:39;17.60;60.00
21439;DHT22;10880;50.302;18.736;2022-10-16T05:45:06;17.60;60.20
21439;DHT22;10880;50.302;18.736;2022-10-16T05:47:34;17.60;60.30
21439;DHT22;10880;50.302;18.736;2022-10-16T05:50:01;17.60;59.90
21439;DHT22;10880;50.302;18.736;2022-10-16T05:52:27;17.60;60.10
21439;DHT22;10880;50.302;18.736;2022-10-16T05:54:53;17.60;60.10
21439;DHT22;10880;50.302;18.736;2022-10-16T05:57:22;17.50;60.20
21439;DHT22;10880;50.302;18.736;2022-10-16T05:59:48;17.50;60.20
21439;DHT22;10880;50.302;18.736;2022-10-16T06:02:14;17.60;60.30
21439;DHT22;10880;50.302;18.736;2022-10-16T06:07:08;17.50;60.30
21439;DHT22;10880;50.302;18.736;2022-10-16T06:12:00;17.50;60.40
21439;DHT22;10880;50.302;18.736;2022-10-16T06:14:27;17.50;60.50
21439;DHT22;10880;50.302;18.736;2022-10-16T06:20:26;16.30;60.50
21439;DHT22;10880;50.302;18.736;2022-10-16T06:22:52;17.60;60.80
21439;DHT22;10880;50.302;18.736;2022-10-16T06:25:18;17.60;60.80
21439;DHT22;10880;50.302;18.736;2022-10-16T06:27:45;17.60;60.80
21439;DHT22;10880;50.302;18.736;2022-10-16T06:30:11;17.70;60.90
21439;DHT22;10880;50.302;18.736;2022-10-16T06:32:37;17.70;61.00
21439;DHT22;10880;50.302;18.736;2022-10-16T06:35:05;17.70;61.00
21439;DHT22;10880;50.302;18.736;2022-10-16T06:37:31;17.70;61.70
21439;DHT22;10880;50.302;18.736;2022-10-16T06:39:58;17.80;61.30
21439;DHT22;10880;50.302;18.736;2022-10-16T06:42:27;17.80;61.80
21439;DHT22;10880;50.302;18.736;2022-10-16T06:44:53;17.80;61.40
21439;DHT22;10880;50.302;18.736;2022-10-16T06:47:19;17.80;61.40
21439;DHT22;10880;50.302;18.736;2022-10-16T06:49:46;17.90;61.40
21439;DHT22;10880;50.302;18.736;2022-10-16T06:52:12;17.90;61.50
21439;DHT22;10880;50.302;18.736;2022-10-16T06:54:38;18.00;61.50
21439;DHT22;10880;50.302;18.736;2022-10-16T06:57:05;18.00;61.50
21439;DHT22;10880;50.302;18.736;2022-10-16T06:59:31;18.00;61.40
21439;DHT22;10880;50.302;18.736;2022-10-16T07:01:57;18.00;61.40
21439;DHT22;10880;50.302;18.736;2022-10-16T07:04:24;18.10;61.40
21439;DHT22;10880;50.302;18.736;2022-10-16T07:06:50;18.10;61.60
21439;DHT22;10880;50.302;18.736;2022-10-16T07:09:17;18.10;61.90
21439;DHT22;10880;50.302;18.736;2022-10-16T07:11:44;18.20;61.70
21439;DHT22;10880;50.302;18.736;2022-10-16T07:14:18;18.30;61.70
21439;DHT22;10880;50.302;18.736;2022-10-16T07:16:45;18.30;62.30
21439;DHT22;10880;50.302;18.736;2022-10-16T07:19:11;18.30;62.30
21439;DHT22;10880;50.302;18.736;2022-10-16T07:21:40;18.30;62.00
21439;DHT22;10880;50.302;18.736;2022-10-16T07:24:12;18.40;61.90
21439;DHT22;10880;50.302;18.736;2022-10-16T07:26:39;18.40;62.30
21439;DHT22;10880;50.302;18.736;2022-10-16T07:29:17;18.50;61.90
21439;DHT22;10880;50.302;18.736;2022-10-16T07:31:45;18.50;62.30
21439;DHT22;10880;50.302;18.736;2022-10-16T07:34:12;18.50;62.20
21439;DHT22;10880;50.302;18.736;2022-10-16T07:36:39;18.70;62.40
21439;DHT22;10880;50.302;18.736;2022-10-16T07:39:06;18.60;61.90
21439;DHT22;10880;50.302;18.736;2022-10-16T07:41:33;18.70;62.00
21439;DHT22;10880;50.302;18.736;2022-10-16T07:44:03;18.70;62.10
21439;DHT22;10880;50.302;18.736;2022-10-16T07:46:30;18.80;62.40
21439;DHT22;10880;50.302;18.736;2022-10-16T07:48:58;18.80;62.20
21439;DHT22;10880;50.302;18.736;2022-10-16T07:51:25;18.80;61.70
21439;DHT22;10880;50.302;18.736;2022-10-16T07:53:52;18.90;62.30
21439;DHT22;10880;50.302;18.736;2022-10-16T07:56:20;18.90;62.30
21439;DHT22;10880;50.302;18.736;2022-10-16T07:58:47;19.00;62.30
21439;DHT22;10880;50.302;18.736;2022-10-16T08:01:16;19.00;62.20
21439;DHT22;10880;50.302;18.736;2022-10-16T08:03:43;19.10;62.20
21439;DHT22;10880;50.302;18.736;2022-10-16T08:06:10;19.10;62.20
21439;DHT22;10880;50.302;18.736;2022-10-16T08:08:36;19.10;61.80
21439;DHT22;10880;50.302;18.736;2022-10-16T08:11:03;19.20;61.70
21439;DHT22;10880;50.302;18.736;2022-10-16T08:13:30;19.20;61.90
21439;DHT22;10880;50.302;18.736;2022-10-16T08:15:57;19.30;62.10
21439;DHT22;10880;50.302;18.736;2022-10-16T08:18:23;19.30;61.50
21439;DHT22;10880;50.302;18.736;2022-10-16T08:20:57;19.30;61.50
21439;DHT22;10880;50.302;18.736;2022-10-16T08:23:24;19.40;62.20
21439;DHT22;10880;50.302;18.736;2022-10-16T08:25:54;19.50;62.10
21439;DHT22;10880;50.302;18.736;2022-10-16T08:28:20;19.50;62.20
21439;DHT22;10880;50.302;18.736;2022-10-16T08:30:47;19.60;61.90
21439;DHT22;10880;50.302;18.736;2022-10-16T08:33:13;19.60;61.80
21439;DHT22;10880;50.302;18.736;2022-10-16T08:35:40;19.70;61.90
21439;DHT22;10880;50.302;18.736;2022-10-16T08:38:06;19.70;61.80
21439;DHT22;10880;50.302;18.736;2022-10-16T08:40:36;19.80;62.70
21439;DHT22;10880;50.302;18.736;2022-10-16T08:48:35;20.00;62.00
21439;DHT22;10880;50.302;18.736;2022-10-16T08:51:08;20.10;61.70
21439;DHT22;10880;50.302;18.736;2022-10-16T08:53:38;20.10;61.50
21439;DHT22;10880;50.302;18.736;2022-10-16T08:56:07;20.20;61.40
21439;DHT22;10880;50.302;18.736;2022-10-16T08:58:34;20.20;60.80
21439;DHT22;10880;50.302;18.736;2022-10-16T09:01:03;20.30;60.90
21439;DHT22;10880;50.302;18.736;2022-10-16T09:06:44;20.30;61.00
21439;DHT22;10880;50.302;18.736;2022-10-16T09:09:27;20.40;61.10
21439;DHT22;10880;50.302;18.736;2022-10-16T09:12:12;20.40;61.00
21439;DHT22;10880;50.302;18.736;2022-10-16T09:25:30;20.70;60.80
21439;DHT22;10880;50.302;18.736;2022-10-16T09:27:58;20.70;60.60
21439;DHT22;10880;50.302;18.736;2022-10-16T09:30:28;20.70;60.00
21439;DHT22;10880;50.302;18.736;2022-10-16T09:32:58;20.80;60.50
21439;DHT22;10880;50.302;18.736;2022-10-16T09:35:53;20.80;60.10
21439;DHT22;10880;50.302;18.736;2022-10-16T09:38:27;20.90;61.10
21439;DHT22;10880;50.302;18.736;2022-10-16T09:41:17;20.90;60.20
21439;DHT22;10880;50.302;18.736;2022-10-16T09:43:42;20.90;60.10
21439;DHT22;10880;50.302;18.736;2022-10-16T09:46:31;21.00;60.00
21439;DHT22;10880;50.302;18.736;2022-10-16T09:49:01;21.00;59.50
21439;DHT22;10880;50.302;18.736;2022-10-16T09:51:36;21.00;60.00
21439;DHT22;10880;50.302;18.736;2022-10-16T09:54:17;21.10;60.00
21439;DHT22;10880;50.302;18.736;2022-10-16T09:56:44;21.10;60.00
21439;DHT22;10880;50.302;18.736;2022-10-16T09:59:17;21.10;59.70
21439;DHT22;10880;50.302;18.736;2022-10-16T10:01:48;21.20;59.90
21439;DHT22;10880;50.302;18.736;2022-10-16T10:04:15;21.20;59.80
21439;DHT22;10880;50.302;18.736;2022-10-16T10:06:54;21.30;59.50
21439;DHT22;10880;50.302;18.736;2022-10-16T10:09:42;21.30;59.80
21439;DHT22;10880;50.302;18.736;2022-10-16T10:12:28;21.40;59.70
21439;DHT22;10880;50.302;18.736;2022-10-16T10:15:10;21.40;59.70
21439;DHT22;10880;50.302;18.736;2022-10-16T10:17:49;21.40;59.60
21439;DHT22;10880;50.302;18.736;2022-10-16T10:20:28;21.50;59.50
21439;DHT22;10880;50.302;18.736;2022-10-16T10:22:56;21.50;59.40
21439;DHT22;10880;50.302;18.736;2022-10-16T10:36:48;21.60;59.00
21439;DHT22;10880;50.302;18.736;2022-10-16T10:39:27;21.60;58.80
21439;DHT22;10880;50.302;18.736;2022-10-16T10:50:41;21.70;58.80
21439;DHT22;10880;50.302;18.736;2022-10-16T10:57:10;21.70;58.90
21439;DHT22;10880;50.302;18.736;2022-10-16T11:01:53;21.80;58.50
21439;DHT22;10880;50.302;18.736;2022-10-16T11:04:55;21.70;59.40
21439;DHT22;10880;50.302;18.736;2022-10-16T11:07:25;20.80;58.30
21439;DHT22;10880;50.302;18.736;2022-10-16T11:10:03;21.80;58.70
21439;DHT22;10880;50.302;18.736;2022-10-16T11:12:35;21.80;58.70
21439;DHT22;10880;50.302;18.736;2022-10-16T11:15:07;21.80;58.60
21439;DHT22;10880;50.302;18.736;2022-10-16T11:17:43;21.80;58.60
21439;DHT22;10880;50.302;18.736;2022-10-16T11:20:30;21.80;58.60
21439;DHT22;10880;50.302;18.736;2022-10-16T11:26:02;21.90;59.20
21439;DHT22;10880;50.302;18.736;2022-10-16T11:28:35;21.90;58.30
21439;DHT22;10880;50.302;18.736;2022-10-16T11:33:49;21.90;58.50
21439;DHT22;10880;50.302;18.736;2022-10-16T11:36:23;22.00;58.40
21439;DHT22;10880;50.302;18.736;2022-10-16T11:41:49;22.10;58.40
21439;DHT22;10880;50.302;18.736;2022-10-16T11:46:51;22.10;58.30
21439;DHT22;10880;50.302;18.736;2022-10-16T11:49:21;22.10;58.30
21439;DHT22;10880;50.302;18.736;2022-10-16T11:54:36;22.20;57.90
21439;DHT22;10880;50.302;18.736;2022-10-16T11:57:14;22.20;58.30
21439;DHT22;10880;50.302;18.736;2022-10-16T11:59:57;22.30;58.30
21439;DHT22;10880;50.302;18.736;2022-10-16T12:07:32;22.40;57.70
21439;DHT22;10880;50.302;18.736;2022-10-16T12:10:28;22.40;58.20
21439;DHT22;10880;50.302;18.736;2022-10-16T12:13:35;22.40;58.10
21439;DHT22;10880;50.302;18.736;2022-10-16T12:18:43;22.50;57.90
21439;DHT22;10880;50.302;18.736;2022-10-16T12:21:12;22.50;58.00
21439;DHT22;10880;50.302;18.736;2022-10-16T12:23:50;22.60;58.00
21439;DHT22;10880;50.302;18.736;2022-10-16T12:26:29;22.60;58.00
21439;DHT22;10880;50.302;18.736;2022-10-16T12:29:23;22.60;58.00
21439;DHT22;10880;50.302;18.736;2022-10-16T12:31:53;22.60;58.00
21439;DHT22;10880;50.302;18.736;2022-10-16T12:36:56;22.70;58.00
21439;DHT22;10880;50.302;18.736;2022-10-16T12:39:33;22.70;57.80
21439;DHT22;10880;50.302;18.736;2022-10-16T12:42:05;22.70;57.70
21439;DHT22;10880;50.302;18.736;2022-10-16T12:44:34;22.70;57.70
21439;DHT22;10880;50.302;18.736;2022-10-16T12:47:02;22.70;57.60
21439;DHT22;10880;50.302;18.736;2022-10-16T12:51:55;22.70;57.30
21439;DHT22;10880;50.302;18.736;2022-10-16T12:54:38;22.70;57.50
21439;DHT22;10880;50.302;18.736;2022-10-16T12:57:39;22.70;57.20
21439;DHT22;10880;50.302;18.736;2022-10-16T13:00:36;22.70;57.50
21439;DHT22;10880;50.302;18.736;2022-10-16T13:03:28;22.70;57.50
21439;DHT22;10880;50.302;18.736;2022-10-16T13:14:15;22.70;56.90
21439;DHT22;10880;50.302;18.736;2022-10-16T13:16:53;22.70;57.40
21439;DHT22;10880;50.302;18.736;2022-10-16T13:23:10;22.60;57.50
21439;DHT22;10880;50.302;18.736;2022-10-16T13:28:01;22.60;57.50
21439;DHT22;10880;50.302;18.736;2022-10-16T13:30:30;22.60;57.50
21439;DHT22;10880;50.302;18.736;2022-10-16T13:35:32;22.60;56.90
21439;DHT22;10880;50.302;18.736;2022-10-16T13:38:10;22.60;57.30
21439;DHT22;10880;50.302;18.736;2022-10-16T13:40:57;22.60;57.30
21439;DHT22;10880;50.302;18.736;2022-10-16T13:43:32;22.60;57.10
21439;DHT22;10880;50.302;18.736;2022-10-16T13:46:06;22.60;57.00
21439;DHT22;10880;50.302;18.736;2022-10-16T13:48:33;22.60;57.00
21439;DHT22;10880;50.302;18.736;2022-10-16T13:51:13;22.60;57.00
21439;DHT22;10880;50.302;18.736;2022-10-16T13:53:41;22.60;56.80
21439;DHT22;10880;50.302;18.736;2022-10-16T13:56:11;22.60;56.80
21439;DHT22;10880;50.302;18.736;2022-10-16T13:58:38;22.60;56.70
21439;DHT22;10880;50.302;18.736;2022-10-16T14:01:15;22.60;56.40
21439;DHT22;10880;50.302;18.736;2022-10-16T14:03:42;22.60;56.70
21439;DHT22;10880;50.302;18.736;2022-10-16T14:06:16;22.60;56.30
21439;DHT22;10880;50.302;18.736;2022-10-16T14:08:46;22.60;56.70
21439;DHT22;10880;50.302;18.736;2022-10-16T14:11:21;22.60;56.70
21439;DHT22;10880;50.302;18.736;2022-10-16T14:13:50;22.60;56.60
21439;DHT22;10880;50.302;18.736;2022-10-16T14:16:23;22.60;56.30
21439;DHT22;10880;50.302;18.736;2022-10-16T14:18:57;22.60;56.50
21439;DHT22;10880;50.302;18.736;2022-10-16T14:21:23;22.60;56.40
21439;DHT22;10880;50.302;18.736;2022-10-16T14:23:53;22.60;56.40
21439;DHT22;10880;50.302;18.736;2022-10-16T14:26:22;22.60;56.30
21439;DHT22;10880;50.302;18.736;2022-10-16T14:29:03;22.60;56.40
21439;DHT22;10880;50.302;18.736;2022-10-16T14:31:32;22.60;56.50
21439;DHT22;10880;50.302;18.736;2022-10-16T14:33:59;22.60;56.40
21439;DHT22;10880;50.302;18.736;2022-10-16T14:36:27;22.60;56.30
21439;DHT22;10880;50.302;18.736;2022-10-16T14:38:59;22.60;56.50
21439;DHT22;10880;50.302;18.736;2022-10-16T14:41:30;22.60;56.40
21439;DHT22;10880;50.302;18.736;2022-10-16T14:44:03;22.60;56.50
21439;DHT22;10880;50.302;18.736;2022-10-16T14:46:36;22.60;56.40
21439;DHT22;10880;50.302;18.736;2022-10-16T14:51:41;22.60;56.50
21439;DHT22;10880;50.302;18.736;2022-10-16T14:54:09;22.60;56.40
21439;DHT22;10880;50.302;18.736;2022-10-16T14:56:56;22.60;56.40
21439;DHT22;10880;50.302;18.736;2022-10-16T14:59:35;22.60;56.00
21439;DHT22;10880;50.302;18.736;2022-10-16T15:04:44;22.60;56.20
21439;DHT22;10880;50.302;18.736;2022-10-16T15:09:37;22.60;55.90
21439;DHT22;10880;50.302;18.736;2022-10-16T15:14:30;22.60;55.90
21439;DHT22;10880;50.302;18.736;2022-10-16T15:19:23;22.60;55.80
21439;DHT22;10880;50.302;18.736;2022-10-16T15:21:49;22.60;56.00
21439;DHT22;10880;50.302;18.736;2022-10-16T15:24:16;22.60;56.20
21439;DHT22;10880;50.302;18.736;2022-10-16T15:26:43;22.60;56.00
21439;DHT22;10880;50.302;18.736;2022-10-16T15:29:17;22.60;56.20
21439;DHT22;10880;50.302;18.736;2022-10-16T15:31:49;22.60;56.40
21439;DHT22;10880;50.302;18.736;2022-10-16T15:34:16;22.60;56.40
21439;DHT22;10880;50.302;18.736;2022-10-16T15:36:45;22.60;56.20
21439;DHT22;10880;50.302;18.736;2022-10-16T15:39:19;22.60;56.00
21439;DHT22;10880;50.302;18.736;2022-10-16T15:41:46;22.60;56.30
21439;DHT22;10880;50.302;18.736;2022-10-16T15:44:20;22.50;56.30
21439;DHT22;10880;50.302;18.736;2022-10-16T15:46:47;22.50;56.20
21439;DHT22;10880;50.302;18.736;2022-10-16T15:49:14;22.50;55.90
21439;DHT22;10880;50.302;18.736;2022-10-16T15:51:41;22.50;55.90
21439;DHT22;10880;50.302;18.736;2022-10-16T15:54:08;22.50;56.20
21439;DHT22;10880;50.302;18.736;2022-10-16T15:56:35;22.50;56.00
21439;DHT22;10880;50.302;18.736;2022-10-16T15:59:03;22.50;56.10
21439;DHT22;10880;50.302;18.736;2022-10-16T16:01:33;22.40;55.90
21439;DHT22;10880;50.302;18.736;2022-10-16T16:04:00;22.40;56.20
21439;DHT22;10880;50.302;18.736;2022-10-16T16:06:26;22.40;56.10
21439;DHT22;10880;50.302;18.736;2022-10-16T16:08:52;22.40;55.80
21439;DHT22;10880;50.302;18.736;2022-10-16T16:11:20;22.30;56.00
21439;DHT22;10880;50.302;18.736;2022-10-16T16:13:46;22.30;56.00
21439;DHT22;10880;50.302;18.736;2022-10-16T16:16:15;22.30;55.70
21439;DHT22;10880;50.302;18.736;2022-10-16T16:18:41;22.30;56.20
21439;DHT22;10880;50.302;18.736;2022-10-16T16:21:10;22.30;56.20
21439;DHT22;10880;50.302;18.736;2022-10-16T16:23:36;22.20;56.20
21439;DHT22;10880;50.302;18.736;2022-10-16T16:26:12;22.20;56.70
21439;DHT22;10880;50.302;18.736;2022-10-16T16:28:41;22.20;56.20
21439;DHT22;10880;50.302;18.736;2022-10-16T16:31:08;22.20;56.30
21439;DHT22;10880;50.302;18.736;2022-10-16T16:33:35;22.10;56.20
21439;DHT22;10880;50.302;18.736;2022-10-16T16:36:04;22.10;55.80
21439;DHT22;10880;50.302;18.736;2022-10-16T16:38:32;22.10;56.20
21439;DHT22;10880;50.302;18.736;2022-10-16T16:40:59;22.10;56.10
21439;DHT22;10880;50.302;18.736;2022-10-16T16:43:27;22.10;56.00
21439;DHT22;10880;50.302;18.736;2022-10-16T16:45:54;22.10;56.30
21439;DHT22;10880;50.302;18.736;2022-10-16T16:48:23;22.00;56.20
21439;DHT22;10880;50.302;18.736;2022-10-16T16:50:54;22.00;56.20
21439;DHT22;10880;50.302;18.736;2022-10-16T16:53:20;22.00;56.00
21439;DHT22;10880;50.302;18.736;2022-10-16T16:55:47;22.00;56.20
21439;DHT22;10880;50.302;18.736;2022-10-16T16:58:14;21.90;56.00
21439;DHT22;10880;50.302;18.736;2022-10-16T17:00:47;21.90;55.90
21439;DHT22;10880;50.302;18.736;2022-10-16T17:03:13;21.90;56.10
21439;DHT22;10880;50.302;18.736;2022-10-16T17:05:39;21.90;55.90
21439;DHT22;10880;50.302;18.736;2022-10-16T17:08:06;21.90;56.10
21439;DHT22;10880;50.302;18.736;2022-10-16T17:10:33;21.90;56.30
21439;DHT22;10880;50.302;18.736;2022-10-16T17:12:59;21.80;56.10
21439;DHT22;10880;50.302;18.736;2022-10-16T17:15:26;21.80;56.20
21439;DHT22;10880;50.302;18.736;2022-10-16T17:20:20;21.80;56.10
21439;DHT22;10880;50.302;18.736;2022-10-16T17:22:46;21.80;56.20
21439;DHT22;10880;50.302;18.736;2022-10-16T17:25:13;21.80;56.50
21439;DHT22;10880;50.302;18.736;2022-10-16T17:27:40;21.70;56.20
21439;DHT22;10880;50.302;18.736;2022-10-16T17:30:06;21.70;56.20
21439;DHT22;10880;50.302;18.736;2022-10-16T17:32:33;21.70;56.40
21439;DHT22;10880;50.302;18.736;2022-10-16T17:35:00;21.70;56.50
21439;DHT22;10880;50.302;18.736;2022-10-16T17:37:26;21.70;56.40
21439;DHT22;10880;50.302;18.736;2022-10-16T17:39:53;21.60;56.30
21439;DHT22;10880;50.302;18.736;2022-10-16T17:42:19;21.70;56.40
21439;DHT22;10880;50.302;18.736;2022-10-16T17:44:45;21.60;56.30
21439;DHT22;10880;50.302;18.736;2022-10-16T17:47:13;21.60;56.30
21439;DHT22;10880;50.302;18.736;2022-10-16T17:49:39;21.60;56.30